Time;durP1;ratioP1;P1;durP2;ratioP2;P2;SDS_P1;SDS_P2;PMS_P1;PMS_P2;Temp;Humidity;BMP_temperature;BMP_pressure;BME280_temperature;BME280_humidity;BME280_pressure;Samples;Min_cycle;Max_cycle;Signal;HPM_P1;HPM_P2
2021/12/09 00:00:15;;;;;;;53.05;23.20;;;;;;;4.00;85.84;98629.09;5013062;28;20048;-83
2021/12/09 00:02:42;;;;;;;48.65;19.98;;;;;;;4.00;85.57;98634.34;5021239;28;21000;-82
2021/12/09 00:05:14;;;;;;;53.33;22.92;;;;;;;3.99;85.64;98635.28;5023608;28;20103;-83
2021/12/09 00:07:42;;;;;;;52.03;22.38;;;;;;;4.02;85.88;98634.19;5006589;28;20056;-83
2021/12/09 00:10:12;;;;;;;43.80;19.08;;;;;;;4.02;85.80;98634.19;5001820;28;20050;-84
2021/12/09 00:12:39;;;;;;;42.40;19.63;;;;;;;4.02;85.78;98631.56;5045223;28;20052;-83
2021/12/09 00:15:06;;;;;;;56.83;22.63;;;;;;;4.02;85.64;98640.31;5041585;28;20485;-83
2021/12/09 00:17:33;;;;;;;55.80;21.88;;;;;;;4.02;85.64;98635.06;5007676;28;20073;-84
2021/12/09 00:20:00;;;;;;;50.38;21.20;;;;;;;4.04;85.86;98642.81;5001288;28;20405;-83
2021/12/09 00:22:27;;;;;;;52.85;22.60;;;;;;;4.03;85.73;98644.59;5003620;28;20049;-83
2021/12/09 00:24:54;;;;;;;50.42;22.67;;;;;;;4.03;85.77;98647.22;4988206;28;20490;-83
2021/12/09 00:27:22;;;;;;;48.63;20.80;;;;;;;4.03;85.79;98646.41;4991286;28;20935;-83
2021/12/09 00:29:49;;;;;;;47.75;21.75;;;;;;;4.03;85.59;98644.59;5011325;28;20049;-83
2021/12/09 00:32:16;;;;;;;51.97;21.40;;;;;;;4.03;85.83;98644.59;5024240;28;20053;-83
2021/12/09 00:34:47;;;;;;;40.85;19.95;;;;;;;4.02;85.73;98642.94;5037999;28;20055;-83
2021/12/09 00:39:51;;;;;;;43.90;21.60;;;;;;;4.03;85.76;98646.41;5007715;28;20434;-83
2021/12/09 00:42:20;;;;;;;45.50;20.67;;;;;;;4.03;85.57;98649.84;5029188;28;20061;-82
2021/12/09 00:44:48;;;;;;;42.20;19.95;;;;;;;4.04;85.75;98651.50;5028003;28;20097;-83
2021/12/09 00:47:14;;;;;;;48.15;20.90;;;;;;;4.04;85.66;98645.44;5038313;28;20039;-83
2021/12/09 00:49:41;;;;;;;46.10;20.45;;;;;;;4.04;85.63;98645.44;5029425;28;20068;-83
2021/12/09 00:52:08;;;;;;;44.10;20.40;;;;;;;4.04;85.58;98642.81;5004557;28;20049;-82
2021/12/09 00:54:35;;;;;;;48.10;17.92;;;;;;;4.04;85.43;98641.00;5020484;28;20366;-83
2021/12/09 00:57:02;;;;;;;52.80;20.75;;;;;;;4.04;85.52;98645.44;5025216;28;20473;-83
2021/12/09 00:59:29;;;;;;;39.90;18.02;;;;;;;4.05;85.56;98647.94;5040483;28;20052;-83
2021/12/09 01:01:56;;;;;;;57.10;20.67;;;;;;;4.05;85.72;98655.00;5024407;28;20512;-83
2021/12/09 01:04:23;;;;;;;45.92;20.13;;;;;;;4.04;85.46;98650.69;5021278;28;20378;-84
2021/12/09 01:06:50;;;;;;;47.72;20.38;;;;;;;4.04;85.56;98655.94;5027142;28;20041;-83
2021/12/09 01:09:17;;;;;;;50.42;20.27;;;;;;;4.04;85.49;98655.94;5021846;28;20038;-83
2021/12/09 01:11:44;;;;;;;45.03;20.33;;;;;;;4.03;85.48;98662.16;5035773;28;20041;-83
2021/12/09 01:14:11;;;;;;;39.53;18.05;;;;;;;4.04;85.57;98663.81;5025554;28;20165;-82
2021/12/09 01:16:38;;;;;;;50.65;19.67;;;;;;;4.06;85.63;98669.78;5028197;28;20132;-83
2021/12/09 01:19:05;;;;;;;49.35;21.00;;;;;;;4.04;85.55;98666.44;5024947;28;20045;-83
2021/12/09 01:21:32;;;;;;;49.70;21.02;;;;;;;4.05;85.63;98674.22;5011089;28;20042;-83
2021/12/09 01:23:58;;;;;;;66.47;22.92;;;;;;;4.05;85.30;98676.00;5005911;28;20042;-83
2021/12/09 01:26:27;;;;;;;49.17;20.98;;;;;;;4.03;85.46;98681.38;5057799;28;20382;-83
2021/12/09 01:28:59;;;;;;;52.95;20.95;;;;;;;4.03;85.37;98686.63;5010630;28;20408;-83
2021/12/09 01:31:30;;;;;;;55.15;20.25;;;;;;;4.01;85.40;98683.28;5028141;28;20068;-83
2021/12/09 01:34:01;;;;;;;45.90;19.60;;;;;;;4.01;85.57;98683.28;5025171;28;20064;-83
2021/12/09 01:36:32;;;;;;;46.92;18.95;;;;;;;4.00;85.51;98673.75;5010988;28;20050;-84
2021/12/09 01:39:28;;;;;;;44.00;18.98;;;;;;;3.92;85.28;98674.34;5009775;28;20049;-83
2021/12/09 01:41:56;;;;;;;44.22;18.65;;;;;;;4.01;85.53;98675.41;4976073;28;20057;-83
2021/12/09 01:44:23;;;;;;;40.35;17.27;;;;;;;4.01;85.30;98677.19;5026004;28;20049;-83
2021/12/09 01:46:49;;;;;;;41.65;15.98;;;;;;;4.02;85.25;98679.72;5026463;28;20111;-82
2021/12/09 01:49:17;;;;;;;41.03;19.20;;;;;;;4.02;85.39;98690.22;5026859;28;20211;-83
2021/12/09 01:51:45;;;;;;;36.38;16.15;;;;;;;4.03;85.50;98696.31;5042869;28;20048;-83
2021/12/09 01:54:13;;;;;;;31.58;14.57;;;;;;;4.03;85.42;98702.38;5022118;28;20048;-83
2021/12/09 01:56:40;;;;;;;35.55;16.55;;;;;;;4.01;85.38;98693.78;5027606;28;20049;-83
2021/12/09 01:59:07;;;;;;;39.42;16.27;;;;;;;4.03;85.32;98697.13;5027204;28;20052;-83
2021/12/09 02:01:34;;;;;;;32.58;13.93;;;;;;;4.03;85.46;98693.69;5027043;28;20057;-83
2021/12/09 02:04:03;;;;;;;42.65;17.92;;;;;;;4.03;85.42;98697.13;5044999;28;20069;-82
2021/12/09 02:06:31;;;;;;;42.95;18.70;;;;;;;4.03;85.46;98697.13;5023668;28;20053;-83
2021/12/09 02:08:58;;;;;;;27.35;12.18;;;;;;;4.04;85.40;98697.97;4991760;28;20045;-83
2021/12/09 02:11:24;;;;;;;40.90;17.20;;;;;;;4.04;85.23;98692.72;4990283;28;20058;-83
2021/12/09 02:13:55;;;;;;;43.92;18.48;;;;;;;4.05;85.32;98691.78;4994711;28;20400;-83
2021/12/09 02:16:22;;;;;;;40.42;18.45;;;;;;;4.03;85.19;98681.38;5028715;28;20049;-83
2021/12/09 02:18:49;;;;;;;38.13;17.27;;;;;;;4.05;85.20;98689.16;5000930;28;20400;-83
2021/12/09 02:21:22;;;;;;;44.92;19.05;;;;;;;4.05;85.41;98689.97;5021290;28;20057;-83
2021/12/09 02:23:51;;;;;;;41.23;19.63;;;;;;;4.05;85.36;98689.97;5039561;28;20049;-83
2021/12/09 02:26:20;;;;;;;44.47;18.42;;;;;;;4.05;85.41;98684.72;5030473;28;20432;-83
2021/12/09 02:28:48;;;;;;;40.85;17.60;;;;;;;4.05;85.39;98689.16;5028318;28;20038;-83
2021/12/09 02:31:15;;;;;;;43.85;19.80;;;;;;;4.06;85.14;98691.63;5042421;28;20537;-83
2021/12/09 02:33:42;;;;;;;47.35;20.08;;;;;;;4.05;85.04;98697.84;5042474;28;20045;-84
2021/12/09 02:36:09;;;;;;;50.03;20.85;;;;;;;4.05;85.12;98702.28;5022129;28;20046;-83
2021/12/09 02:38:43;;;;;;;45.58;18.08;;;;;;;4.05;84.91;98707.53;5024209;28;20468;-83
2021/12/09 02:41:15;;;;;;;50.67;20.75;;;;;;;4.03;85.08;98712.91;5039836;28;20531;-83
2021/12/09 02:43:44;;;;;;;42.28;18.08;;;;;;;4.02;85.25;98715.63;5040734;28;20042;-83
2021/12/09 02:46:12;;;;;;;30.48;13.68;;;;;;;4.04;85.03;98716.34;5028107;28;20053;-83
2021/12/09 02:48:39;;;;;;;33.40;14.07;;;;;;;4.03;85.18;98720.78;5003915;28;20050;-83
2021/12/09 02:51:06;;;;;;;32.38;13.98;;;;;;;4.04;85.04;98725.06;5042389;28;20053;-83
2021/12/09 02:53:34;;;;;;;39.70;16.60;;;;;;;4.03;84.92;98718.16;5025667;28;20037;-83
2021/12/09 02:56:02;;;;;;;39.88;17.13;;;;;;;4.03;84.96;98733.91;5023931;28;20090;-83
2021/12/09 02:58:30;;;;;;;38.55;17.60;;;;;;;4.03;84.85;98728.66;5025464;28;20041;-83
2021/12/09 03:01:00;;;;;;;31.27;14.23;;;;;;;4.04;84.75;98730.31;5024401;28;20045;-83
2021/12/09 03:03:27;;;;;;;28.88;13.52;;;;;;;4.02;84.85;98732.25;5020336;28;20045;-83
2021/12/09 03:05:56;;;;;;;37.70;17.20;;;;;;;4.03;84.65;98740.97;5005121;28;20038;-83
2021/12/09 03:08:34;;;;;;;40.28;16.48;;;;;;;4.02;84.73;98749.78;5020296;28;20496;-83
2021/12/09 03:11:10;;;;;;;43.00;17.88;;;;;;;3.97;84.48;98752.78;5023533;28;20060;-83
2021/12/09 03:13:37;;;;;;;44.75;19.13;;;;;;;4.01;84.88;98753.38;5006023;28;20060;-83
2021/12/09 03:16:58;;;;;;;44.63;20.05;;;;;;;3.92;84.82;98741.81;4979988;28;20121;-83
2021/12/09 03:19:25;;;;;;;34.70;14.25;;;;;;;3.98;84.67;98736.06;4988174;28;20057;-83
2021/12/09 03:21:53;;;;;;;32.50;13.80;;;;;;;4.00;84.89;98735.97;5054612;28;20060;-83
2021/12/09 03:24:20;;;;;;;36.28;16.95;;;;;;;3.99;84.85;98736.91;5042159;28;20136;-83
2021/12/09 03:26:56;;;;;;;28.13;13.15;;;;;;;3.97;84.56;98736.19;5006891;28;20045;-84
2021/12/09 03:29:25;;;;;;;35.13;15.95;;;;;;;3.99;84.64;98740.34;5034082;28;20042;-83
2021/12/09 03:31:56;;;;;;;37.05;15.02;;;;;;;4.00;84.60;98741.22;5038276;28;20045;-83
2021/12/09 03:34:25;;;;;;;32.13;14.75;;;;;;;3.99;84.74;98742.97;5004286;28;20513;-83
2021/12/09 03:36:52;;;;;;;26.95;13.13;;;;;;;3.99;84.71;98735.09;5017419;28;20509;-83
2021/12/09 03:39:22;;;;;;;33.60;13.65;;;;;;;3.99;84.67;98726.38;5008992;28;20064;-83
2021/12/09 03:41:53;;;;;;;28.90;12.18;;;;;;;3.97;84.40;98723.03;5021039;28;20076;-83
2021/12/09 03:44:22;;;;;;;33.83;16.10;;;;;;;3.99;84.33;98724.59;5012880;28;20061;-83
2021/12/09 03:46:51;;;;;;;32.63;14.48;;;;;;;3.99;84.30;98737.72;4988944;28;20414;-83
2021/12/09 03:49:19;;;;;;;36.78;16.50;;;;;;;4.00;84.41;98733.31;5027908;28;20095;-83
2021/12/09 03:51:45;;;;;;;35.63;16.05;;;;;;;3.96;84.28;98739.78;5040155;28;20041;-82
2021/12/09 03:54:12;;;;;;;29.08;14.60;;;;;;;3.99;84.33;98748.22;5023055;28;20488;-83
2021/12/09 03:56:39;;;;;;;25.85;12.15;;;;;;;3.99;84.17;98744.78;5024119;28;20448;-83
2021/12/09 03:59:08;;;;;;;27.85;13.38;;;;;;;3.99;84.13;98753.47;5022271;28;20408;-83
2021/12/09 04:01:35;;;;;;;36.97;14.40;;;;;;;3.99;84.17;98747.41;5024468;28;20084;-83
2021/12/09 04:04:02;;;;;;;26.15;11.75;;;;;;;3.98;84.15;98751.00;5022576;28;20040;-83
2021/12/09 04:06:29;;;;;;;36.50;17.25;;;;;;;3.97;84.09;98758.03;5011304;28;20425;-83
2021/12/09 04:08:57;;;;;;;36.22;15.98;;;;;;;3.98;84.14;98764.13;5013524;28;20405;-83
2021/12/09 04:11:24;;;;;;;29.08;12.88;;;;;;;3.97;84.20;98760.66;5002470;28;20467;-84
2021/12/09 04:13:51;;;;;;;44.05;17.67;;;;;;;3.98;84.10;98767.59;5004745;28;20785;-84
2021/12/09 04:16:18;;;;;;;31.73;15.00;;;;;;;3.98;84.22;98764.97;5001969;28;20045;-84
2021/12/09 04:18:45;;;;;;;36.60;18.20;;;;;;;3.98;84.02;98764.97;4988262;28;20045;-84
2021/12/09 04:21:12;;;;;;;46.70;20.02;;;;;;;3.99;83.93;98760.53;5019961;28;20831;-83
2021/12/09 04:24:31;;;;;;;35.45;18.13;;;;;;;3.91;84.04;98754.09;5016202;28;20050;-84
2021/12/09 04:26:58;;;;;;;48.60;22.38;;;;;;;3.98;83.98;98757.06;4958425;28;20629;-84
2021/12/09 04:29:25;;;;;;;49.15;22.15;;;;;;;3.99;84.25;98752.66;5036610;28;20413;-83
2021/12/09 04:35:37;;;;;;;42.72;20.15;;;;;;;3.97;84.30;98765.06;4996316;28;20451;-83
2021/12/09 04:38:04;;;;;;;45.42;20.55;;;;;;;3.99;84.26;98768.41;5021217;28;20053;-83
2021/12/09 04:40:31;;;;;;;44.20;18.60;;;;;;;3.99;84.30;98771.03;5004576;28;20049;-83
2021/12/09 04:47:08;;;;;;;44.38;19.85;;;;;;;3.96;84.11;98766.88;4981109;28;20045;-83
2021/12/09 04:49:35;;;;;;;37.17;16.92;;;;;;;3.97;84.06;98771.19;5005882;28;20096;-83
2021/12/09 04:52:03;;;;;;;35.92;17.15;;;;;;;3.98;84.08;98778.09;5023241;28;20554;-83
2021/12/09 04:54:30;;;;;;;45.10;18.58;;;;;;;4.00;83.95;98785.88;5023752;28;22836;-83
2021/12/09 04:56:57;;;;;;;32.10;16.65;;;;;;;3.98;83.87;98785.97;5023724;28;20489;-83
2021/12/09 04:59:28;;;;;;;38.00;19.02;;;;;;;3.98;83.86;98798.28;5031055;28;20053;-83
2021/12/09 05:01:55;;;;;;;36.22;17.08;;;;;;;4.00;84.08;98801.63;5003624;28;20068;-83
2021/12/09 05:04:22;;;;;;;36.92;17.35;;;;;;;4.00;83.86;98806.88;5010206;28;20438;-83
2021/12/09 05:06:49;;;;;;;34.33;15.32;;;;;;;4.01;84.01;98813.78;5018822;28;20049;-83
2021/12/09 05:09:18;;;;;;;35.28;16.25;;;;;;;3.99;83.79;98811.25;5022722;28;20053;-83
2021/12/09 05:11:49;;;;;;;41.75;17.25;;;;;;;3.98;83.52;98819.28;5017670;28;20038;-83
2021/12/09 05:14:18;;;;;;;37.42;17.15;;;;;;;3.99;83.73;98820.94;5035618;28;20071;-83
2021/12/09 05:16:47;;;;;;;38.65;17.15;;;;;;;3.99;83.62;98828.81;5023848;28;20038;-83
2021/12/09 05:19:13;;;;;;;35.78;17.10;;;;;;;3.98;83.80;98829.78;5008745;28;20057;-83
2021/12/09 05:21:40;;;;;;;36.95;16.00;;;;;;;3.98;83.75;98843.75;5021757;28;20058;-83
2021/12/09 05:24:11;;;;;;;35.97;16.33;;;;;;;3.97;83.78;98844.72;5021150;28;20440;-83
2021/12/09 05:26:48;;;;;;;41.13;17.10;;;;;;;3.97;83.51;98849.13;5022336;28;20042;-83
2021/12/09 05:29:17;;;;;;;38.92;18.00;;;;;;;3.97;83.60;98849.13;5011272;28;20042;-82
2021/12/09 05:34:30;;;;;;;37.75;16.88;;;;;;;3.96;83.49;98847.44;5026982;28;20042;-83
2021/12/09 05:36:57;;;;;;;29.05;15.73;;;;;;;3.97;83.59;98847.34;5020258;28;20053;-83
2021/12/09 05:39:23;;;;;;;27.50;12.70;;;;;;;3.97;83.53;98849.97;5020095;28;20049;-83
2021/12/09 05:41:52;;;;;;;32.50;14.25;;;;;;;3.97;83.48;98849.97;4997902;28;20510;-83
2021/12/09 05:44:18;;;;;;;31.95;14.32;;;;;;;3.98;83.40;98859.50;4984207;28;20046;-83
2021/12/09 05:46:46;;;;;;;24.63;12.40;;;;;;;3.98;83.50;98861.31;5010264;28;20512;-83
2021/12/09 05:49:15;;;;;;;33.20;13.90;;;;;;;4.00;83.43;98856.78;5035805;28;20073;-83
2021/12/09 05:51:42;;;;;;;26.80;12.38;;;;;;;4.00;83.25;98867.28;5023340;28;20041;-83
2021/12/09 05:54:10;;;;;;;21.85;11.50;;;;;;;3.98;83.38;98856.88;5028652;28;20103;-83
2021/12/09 05:56:37;;;;;;;22.52;11.23;;;;;;;4.00;83.33;98872.53;5008257;28;20049;-82
2021/12/09 05:59:04;;;;;;;21.08;12.25;;;;;;;3.99;83.23;98874.31;5023079;28;20033;-83
2021/12/09 06:01:31;;;;;;;19.13;10.05;;;;;;;3.98;83.19;98875.28;5010118;28;20041;-83
2021/12/09 06:03:58;;;;;;;25.70;11.25;;;;;;;3.98;83.43;98875.28;5024740;28;20554;-82
2021/12/09 06:06:25;;;;;;;23.92;10.50;;;;;;;3.99;83.46;98876.09;5021319;28;20060;-83
2021/12/09 06:08:51;;;;;;;22.75;10.73;;;;;;;3.98;83.07;98880.53;5041605;28;20125;-83
2021/12/09 06:11:18;;;;;;;22.40;11.18;;;;;;;3.99;83.18;98884.81;5024795;28;20048;-82
2021/12/09 06:13:50;;;;;;;18.83;9.45;;;;;;;3.95;82.98;98883.41;5026559;28;20041;-83
2021/12/09 06:16:16;;;;;;;18.35;10.43;;;;;;;3.98;83.28;98888.41;5025093;28;20104;-83
2021/12/09 06:18:43;;;;;;;24.45;10.90;;;;;;;4.00;83.13;98890.94;5023876;28;20409;-83
2021/12/09 06:21:10;;;;;;;22.30;11.55;;;;;;;3.99;83.05;98905.00;5026103;28;20048;-83
2021/12/09 06:23:37;;;;;;;20.73;10.63;;;;;;;4.00;82.78;98899.63;5024440;28;20052;-83
2021/12/09 06:26:06;;;;;;;22.83;10.93;;;;;;;4.01;82.76;98897.84;5029790;28;20100;-83
2021/12/09 06:28:36;;;;;;;21.48;11.38;;;;;;;3.99;82.77;98905.81;5024420;28;20049;-83
2021/12/09 06:31:02;;;;;;;23.02;11.32;;;;;;;4.01;82.70;98897.84;5020672;28;20052;-82
2021/12/09 06:33:29;;;;;;;21.90;10.85;;;;;;;4.00;82.71;98904.91;5030833;28;20140;-83
2021/12/09 06:35:56;;;;;;;23.45;12.18;;;;;;;3.99;82.48;98911.09;5027177;28;20053;-83
2021/12/09 06:38:23;;;;;;;25.95;11.18;;;;;;;3.99;82.73;98905.81;5006433;28;20111;-81
2021/12/09 06:40:50;;;;;;;30.95;11.88;;;;;;;4.00;82.67;98906.69;5019316;28;21102;-83
2021/12/09 06:43:17;;;;;;;26.80;11.50;;;;;;;3.99;82.71;98905.81;5023232;28;20042;-83
2021/12/09 06:45:44;;;;;;;21.63;10.32;;;;;;;3.99;82.75;98911.09;5025194;28;20046;-82
2021/12/09 06:48:11;;;;;;;31.90;14.35;;;;;;;3.98;82.70;98905.97;5021590;28;20412;-83
2021/12/09 06:50:38;;;;;;;28.08;13.32;;;;;;;3.99;82.90;98912.88;5024765;28;20037;-82
2021/12/09 06:53:05;;;;;;;30.88;12.10;;;;;;;3.97;82.85;98910.38;5013316;28;20465;-82
2021/12/09 06:55:32;;;;;;;24.88;11.20;;;;;;;3.97;82.88;98910.38;5013290;28;20042;-83
2021/12/09 06:57:59;;;;;;;22.55;11.07;;;;;;;3.98;82.79;98916.47;5017060;28;20041;-82
2021/12/09 07:00:29;;;;;;;28.25;12.38;;;;;;;3.95;82.75;98914.91;4999805;28;20058;-83
2021/12/09 07:02:56;;;;;;;26.52;12.50;;;;;;;3.96;82.77;98916.56;5003104;28;21372;-82
2021/12/09 07:05:24;;;;;;;21.77;10.70;;;;;;;3.95;82.64;98912.28;5018281;28;20077;-83
2021/12/09 07:07:51;;;;;;;24.40;11.50;;;;;;;3.96;82.80;98910.50;5034629;28;20125;-82
2021/12/09 07:10:20;;;;;;;26.33;11.63;;;;;;;3.96;82.91;98918.38;5005488;28;20038;-83
2021/12/09 07:12:47;;;;;;;29.38;12.68;;;;;;;3.95;82.96;98924.59;4986592;28;20191;-83
2021/12/09 07:15:14;;;;;;;29.52;11.85;;;;;;;3.96;82.53;98921.00;5017878;28;20464;-83
2021/12/09 07:17:41;;;;;;;26.10;11.55;;;;;;;3.94;82.86;98920.28;5017126;28;20057;-83
2021/12/09 07:20:11;;;;;;;22.63;11.63;;;;;;;3.95;82.81;98927.22;5018594;28;20054;-82
2021/12/09 07:22:38;;;;;;;27.13;12.75;;;;;;;3.93;82.94;98919.44;5022728;28;21074;-82
2021/12/09 07:25:06;;;;;;;39.40;16.13;;;;;;;3.92;82.66;98913.34;5024978;28;20048;-83
2021/12/09 07:27:33;;;;;;;38.85;14.75;;;;;;;3.92;82.67;98910.72;5001006;28;20103;-83
2021/12/09 07:30:00;;;;;;;40.03;16.33;;;;;;;3.92;82.66;98910.72;5004154;28;20037;-82
2021/12/09 07:32:32;;;;;;;38.45;15.15;;;;;;;3.92;82.84;98910.72;5025162;28;20044;-83
2021/12/09 07:35:00;;;;;;;35.92;14.65;;;;;;;3.92;82.68;98918.63;5023762;28;20053;-83
2021/12/09 07:37:27;;;;;;;33.30;14.65;;;;;;;3.94;82.84;98928.16;5022248;28;20053;-83
2021/12/09 07:39:54;;;;;;;32.20;15.27;;;;;;;3.95;82.88;98932.47;5006765;28;20041;-82
2021/12/09 07:42:21;;;;;;;30.77;13.95;;;;;;;3.93;82.55;98932.56;5041310;28;20053;-82
2021/12/09 07:44:47;;;;;;;27.02;13.27;;;;;;;3.93;82.58;98935.19;5021348;28;20045;-83
2021/12/09 07:47:15;;;;;;;32.88;14.30;;;;;;;3.94;82.71;98934.22;5017423;28;20049;-83
2021/12/09 07:49:41;;;;;;;25.20;11.68;;;;;;;3.93;82.79;98937.81;5023150;28;20102;-82
2021/12/09 07:52:08;;;;;;;33.35;13.80;;;;;;;3.95;82.92;98932.47;5040811;28;20057;-83
2021/12/09 07:54:35;;;;;;;29.08;13.02;;;;;;;3.94;82.85;98944.75;5037499;28;20099;-83
2021/12/09 07:57:05;;;;;;;26.63;13.05;;;;;;;3.93;82.57;98945.69;5003697;28;20041;-83
2021/12/09 07:59:32;;;;;;;30.20;13.48;;;;;;;3.95;82.59;98943.81;4954824;28;20135;-83
2021/12/09 08:01:59;;;;;;;28.85;13.40;;;;;;;3.95;82.72;98948.22;5036519;28;20424;-83
2021/12/09 08:04:26;;;;;;;22.75;11.15;;;;;;;3.96;82.71;98948.09;5023556;28;20075;-83
2021/12/09 08:06:52;;;;;;;26.48;11.77;;;;;;;3.97;82.55;98939.28;5022531;28;20037;-83
2021/12/09 08:09:19;;;;;;;23.90;11.38;;;;;;;3.97;82.44;98941.03;5024872;28;20049;-83
2021/12/09 08:11:47;;;;;;;25.02;11.55;;;;;;;4.00;82.54;98951.34;4998706;28;20053;-82
2021/12/09 08:14:16;;;;;;;26.50;12.05;;;;;;;4.00;82.45;98948.72;5021292;28;20401;-83
2021/12/09 08:16:43;;;;;;;29.35;13.10;;;;;;;3.99;82.70;98947.03;5023412;28;20055;-83
2021/12/09 08:19:12;;;;;;;26.88;12.93;;;;;;;4.00;82.33;98946.09;5016786;28;20038;-83
2021/12/09 08:21:41;;;;;;;24.38;12.18;;;;;;;4.00;82.24;98946.09;5017424;28;20092;-83
2021/12/09 08:24:10;;;;;;;23.35;11.23;;;;;;;4.00;82.20;98946.09;5020521;28;20451;-82
2021/12/09 08:26:37;;;;;;;29.70;11.73;;;;;;;4.00;82.31;98949.56;5019900;28;20106;-81
2021/12/09 08:29:04;;;;;;;24.77;12.10;;;;;;;4.00;82.15;98952.19;5022743;28;20053;-83
2021/12/09 08:31:33;;;;;;;26.25;11.93;;;;;;;4.01;82.33;98950.38;5021702;28;20045;-82
2021/12/09 08:34:10;;;;;;;27.85;12.63;;;;;;;3.99;82.38;98950.47;5001335;28;20057;-83
2021/12/09 08:36:45;;;;;;;29.20;12.93;;;;;;;4.00;82.40;98951.34;5013794;28;20052;-83
2021/12/09 08:39:11;;;;;;;28.02;12.32;;;;;;;4.01;82.29;98958.25;5040369;28;20405;-83
2021/12/09 08:41:39;;;;;;;30.27;13.00;;;;;;;4.02;82.19;98960.78;5017568;28;20049;-80
2021/12/09 08:44:07;;;;;;;32.50;13.30;;;;;;;3.99;82.19;98962.78;5020550;28;20042;-83
2021/12/09 08:46:34;;;;;;;28.98;12.27;;;;;;;4.02;82.15;98962.53;5026225;28;20091;-83
2021/12/09 08:49:01;;;;;;;29.35;14.13;;;;;;;4.02;82.51;98971.28;5038031;28;20493;-83
2021/12/09 08:51:29;;;;;;;24.17;12.52;;;;;;;4.03;82.29;98965.06;5022475;28;20045;-83
2021/12/09 08:53:58;;;;;;;32.72;14.77;;;;;;;4.03;82.46;98967.69;5022026;28;20428;-83
2021/12/09 08:56:25;;;;;;;26.90;12.85;;;;;;;4.02;82.40;98968.66;5033699;28;20045;-83
2021/12/09 08:58:52;;;;;;;20.42;11.25;;;;;;;4.00;82.34;98970.56;5025308;28;20125;-83
2021/12/09 09:01:19;;;;;;;26.90;12.02;;;;;;;4.03;82.20;98977.38;5016760;28;20556;-83
2021/12/09 09:03:46;;;;;;;19.98;10.68;;;;;;;4.01;82.30;98982.72;5006879;28;20130;-83
2021/12/09 09:06:13;;;;;;;27.30;11.90;;;;;;;4.02;82.39;98984.44;5004313;28;20049;-83
2021/12/09 09:08:40;;;;;;;21.20;10.48;;;;;;;4.02;82.30;98991.44;5010596;28;20691;-83
2021/12/09 09:11:06;;;;;;;23.10;11.07;;;;;;;4.03;82.28;98993.13;5019331;28;20041;-83
2021/12/09 09:13:34;;;;;;;19.00;9.57;;;;;;;4.05;82.52;98999.13;5025257;28;20045;-82
2021/12/09 09:16:01;;;;;;;18.00;9.77;;;;;;;4.06;82.11;99000.78;5018755;28;20046;-83
2021/12/09 09:18:28;;;;;;;18.38;9.60;;;;;;;4.05;82.29;99010.47;5038956;28;20045;-83
2021/12/09 09:20:55;;;;;;;21.80;10.50;;;;;;;4.04;82.34;99021.91;5023001;28;20038;-83
2021/12/09 09:23:22;;;;;;;20.75;9.57;;;;;;;4.05;82.33;99025.38;5006130;28;20049;-83
2021/12/09 09:25:49;;;;;;;22.60;8.82;;;;;;;4.06;82.17;99024.44;5043793;28;20519;-83
2021/12/09 09:28:16;;;;;;;19.13;9.20;;;;;;;4.07;82.22;99024.31;5026046;28;20049;-82
2021/12/09 09:30:52;;;;;;;20.35;10.07;;;;;;;4.07;82.31;99026.09;5042024;28;20037;-83
2021/12/09 09:33:23;;;;;;;19.10;9.23;;;;;;;4.07;82.50;99036.59;5030961;28;20045;-83
2021/12/09 09:35:50;;;;;;;19.33;9.52;;;;;;;4.08;82.33;99033.88;4976781;28;20148;-83
2021/12/09 09:38:19;;;;;;;22.88;10.18;;;;;;;4.09;82.13;99035.53;5007970;28;20049;-83
2021/12/09 09:40:51;;;;;;;21.38;10.50;;;;;;;4.09;82.27;99034.69;5012989;28;20045;-83
2021/12/09 09:43:43;;;;;;;20.27;9.95;;;;;;;4.10;82.36;99033.75;5038438;28;20109;-83
2021/12/09 09:46:19;;;;;;;20.77;8.57;;;;;;;4.05;82.16;99036.72;4976061;28;20041;-83
2021/12/09 09:48:47;;;;;;;17.80;8.35;;;;;;;4.08;82.04;99040.91;5003528;28;20095;-83
2021/12/09 09:51:15;;;;;;;14.60;7.85;;;;;;;4.08;82.10;99040.91;4999515;28;20037;-83
2021/12/09 09:53:42;;;;;;;21.60;9.15;;;;;;;4.10;82.24;99044.28;5028162;28;20053;-83
2021/12/09 09:56:15;;;;;;;19.42;9.57;;;;;;;4.11;82.27;99041.50;5024900;28;20096;-83
2021/12/09 09:58:48;;;;;;;20.35;9.43;;;;;;;4.08;82.27;99033.03;5038122;28;20045;-83
2021/12/09 10:01:16;;;;;;;25.60;9.80;;;;;;;4.13;82.33;99042.25;5041126;28;20074;-83
2021/12/09 10:03:46;;;;;;;22.63;10.00;;;;;;;4.15;82.26;99042.16;5043014;28;20069;-83
2021/12/09 10:06:17;;;;;;;27.98;9.60;;;;;;;4.15;81.66;99044.78;5020654;28;20516;-83
2021/12/09 10:08:44;;;;;;;20.38;9.20;;;;;;;4.09;81.60;99032.91;5025771;28;20511;-83
2021/12/09 10:11:11;;;;;;;21.13;9.18;;;;;;;4.10;81.97;99036.41;5021819;28;20045;-82
2021/12/09 10:13:41;;;;;;;21.15;9.63;;;;;;;4.09;81.72;99035.53;5027205;28;20072;-83
2021/12/09 10:16:18;;;;;;;17.88;9.32;;;;;;;4.03;81.75;99038.63;5007323;28;20471;-83
2021/12/09 10:18:46;;;;;;;24.30;10.73;;;;;;;4.10;81.76;99042.47;5040136;28;20045;-82
2021/12/09 10:21:20;;;;;;;20.60;10.27;;;;;;;4.07;82.00;99040.09;5040189;28;20046;-82
2021/12/09 10:23:50;;;;;;;21.23;10.60;;;;;;;4.12;82.12;99035.31;5021680;28;20041;-83
2021/12/09 10:26:44;;;;;;;23.17;8.95;;;;;;;4.09;81.82;99026.81;5037597;28;20068;-83
2021/12/09 10:29:17;;;;;;;23.33;9.77;;;;;;;4.10;81.98;99016.22;5023794;28;20045;-83
2021/12/09 10:31:46;;;;;;;20.35;10.25;;;;;;;4.12;82.01;99030.06;5025695;28;20041;-82
2021/12/09 10:34:37;;;;;;;21.33;9.70;;;;;;;4.14;82.08;99033.41;5014390;28;20046;-83
2021/12/09 10:37:13;;;;;;;21.00;10.18;;;;;;;4.06;81.41;99043.66;5021281;28;20045;-83
2021/12/09 10:40:02;;;;;;;21.52;10.15;;;;;;;4.12;81.55;99035.31;5024963;28;20037;-83
2021/12/09 10:42:34;;;;;;;19.88;9.90;;;;;;;4.14;81.95;99038.66;4974914;28;20406;-83
2021/12/09 10:45:07;;;;;;;23.17;10.30;;;;;;;4.17;82.21;99036.75;5024998;28;20041;-83
2021/12/09 10:47:57;;;;;;;23.27;10.38;;;;;;;4.14;81.62;99024.69;4992254;28;20084;-83
2021/12/09 10:56:10;;;;;;;24.00;9.88;;;;;;;4.12;81.95;99032.69;4997469;28;20492;-83
2021/12/09 10:58:38;;;;;;;22.45;8.70;;;;;;;4.20;82.09;99039.16;4959253;28;20359;-81
2021/12/09 11:01:07;;;;;;;23.67;9.68;;;;;;;4.20;81.85;99031.25;5004160;28;20092;-83
2021/12/09 11:03:56;;;;;;;21.98;9.88;;;;;;;4.18;81.83;99030.56;4987614;28;20069;-83
2021/12/09 11:06:34;;;;;;;20.85;10.40;;;;;;;4.16;81.76;99038.56;4997252;28;20100;-83
2021/12/09 11:09:06;;;;;;;19.30;8.48;;;;;;;4.19;81.94;99040.94;4956021;28;20042;-82
2021/12/09 11:11:39;;;;;;;19.00;9.57;;;;;;;4.20;82.03;99037.38;5006772;28;20050;-83
2021/12/09 11:14:18;;;;;;;22.88;10.48;;;;;;;4.11;81.51;99041.50;4985952;28;20231;-83
2021/12/09 11:16:55;;;;;;;27.73;10.13;;;;;;;4.14;81.64;99048.34;5002400;28;20053;-83
2021/12/09 11:19:48;;;;;;;21.50;9.27;;;;;;;4.13;81.62;99036.16;4998011;28;20516;-83
2021/12/09 11:22:19;;;;;;;26.55;10.27;;;;;;;4.15;81.77;99042.16;4977556;28;20047;-82
2021/12/09 11:24:58;;;;;;;24.20;9.55;;;;;;;4.14;81.47;99032.56;5035989;28;20045;-83
2021/12/09 11:27:26;;;;;;;18.52;9.10;;;;;;;4.18;81.63;99035.81;5009275;28;20451;-83
2021/12/09 11:29:59;;;;;;;21.48;8.43;;;;;;;4.18;81.53;99025.31;5024076;28;20049;-83
2021/12/09 11:32:38;;;;;;;22.75;8.88;;;;;;;4.17;81.73;99016.56;5017516;28;20041;-83
2021/12/09 11:35:24;;;;;;;24.55;9.60;;;;;;;4.14;81.74;99017.63;5004053;28;20041;-83
2021/12/09 11:40:40;;;;;;;19.48;8.80;;;;;;;4.22;81.82;99029.38;5023464;28;20041;-83
2021/12/09 11:43:10;;;;;;;19.23;8.52;;;;;;;4.22;81.63;99030.19;5004266;28;20038;-83
2021/12/09 11:45:40;;;;;;;17.63;8.65;;;;;;;4.24;81.63;99033.56;5002926;28;20378;-83
2021/12/09 11:48:09;;;;;;;25.08;8.82;;;;;;;4.27;81.64;99035.13;5035929;28;20121;-82
2021/12/09 11:50:38;;;;;;;21.88;8.40;;;;;;;4.27;81.39;99035.94;4981942;28;20041;-83
2021/12/09 11:53:07;;;;;;;18.92;7.53;;;;;;;4.25;81.45;99022.09;5003927;28;20125;-82
2021/12/09 11:55:43;;;;;;;17.55;8.43;;;;;;;4.27;81.56;99014.09;5039995;28;20214;-80
2021/12/09 11:58:27;;;;;;;16.77;7.88;;;;;;;4.28;81.44;99029.75;5024973;28;20033;-83